createdAt,value
2022-10-25T00:00:12.512Z,7.25
2022-10-25T00:02:40.148Z,12.23
2022-10-25T00:05:09.105Z,6.72
2022-10-25T00:07:36.635Z,10.27
2022-10-25T00:10:04.494Z,9.23
2022-10-25T00:12:32.124Z,12.38
2022-10-25T00:15:02.105Z,10.52
2022-10-25T00:17:31.085Z,7.45
2022-10-25T00:19:58.625Z,9.00
2022-10-25T00:22:26.206Z,8.50
2022-10-25T00:24:53.747Z,8.45
2022-10-25T00:27:21.371Z,4.78
2022-10-25T00:29:48.994Z,8.48
2022-10-25T00:32:16.736Z,4.75
2022-10-25T00:34:45.838Z,6.68
2022-10-25T00:37:14.125Z,13.95
2022-10-25T00:39:41.889Z,8.25
2022-10-25T00:42:14.794Z,7.65
2022-10-25T00:44:57.223Z,7.75
2022-10-25T00:47:46.133Z,6.93
2022-10-25T00:50:40.879Z,9.23
2022-10-25T00:53:13.572Z,9.27
2022-10-25T00:55:45.451Z,9.30
2022-10-25T00:58:17.235Z,6.43
2022-10-25T01:00:46.205Z,7.68
2022-10-25T01:03:14.679Z,6.22
2022-10-25T01:05:44.166Z,9.00
2022-10-25T01:08:12.155Z,10.68
2022-10-25T01:10:40.701Z,7.32
2022-10-25T01:13:08.482Z,9.43
2022-10-25T01:15:43.411Z,9.63
2022-10-25T01:18:17.915Z,6.47
2022-10-25T01:21:22.134Z,5.80
2022-10-25T01:24:07.212Z,9.15
2022-10-25T01:27:04.949Z,7.10
2022-10-25T01:29:56.490Z,12.45
2022-10-25T01:32:32.436Z,8.30
2022-10-25T01:35:08.109Z,9.20
2022-10-25T01:37:43.629Z,5.40
2022-10-25T01:40:19.275Z,8.85
2022-10-25T01:42:54.128Z,9.55
2022-10-25T01:45:28.237Z,4.80
2022-10-25T01:48:04.451Z,7.60
2022-10-25T01:50:35.747Z,8.82
2022-10-25T01:53:03.409Z,6.68
2022-10-25T01:55:35.810Z,7.18
2022-10-25T01:58:14.161Z,8.90
2022-10-25T02:00:54.578Z,6.13
2022-10-25T02:03:31.248Z,7.68
2022-10-25T02:06:10.359Z,8.75
2022-10-25T02:08:42.982Z,9.98
2022-10-25T02:11:19.038Z,7.40
2022-10-25T02:13:59.068Z,10.82
2022-10-25T02:16:29.262Z,10.88
2022-10-25T02:19:02.485Z,8.23
2022-10-25T02:21:34.309Z,13.30
2022-10-25T02:24:07.537Z,9.18
2022-10-25T02:26:37.222Z,11.20
2022-10-25T02:29:06.947Z,8.30
2022-10-25T02:31:37.330Z,9.60
2022-10-25T02:34:06.975Z,8.57
2022-10-25T02:36:34.598Z,8.75
2022-10-25T02:39:03.150Z,9.32
2022-10-25T02:41:30.774Z,13.68
2022-10-25T02:43:58.498Z,14.07
2022-10-25T02:46:26.208Z,12.27
2022-10-25T02:48:53.822Z,13.05
2022-10-25T02:51:23.059Z,11.82
2022-10-25T02:53:50.816Z,11.57
2022-10-25T02:56:20.409Z,17.67
2022-10-25T02:58:49.410Z,9.25
2022-10-25T03:01:18.699Z,15.55
2022-10-25T03:03:47.072Z,11.10
2022-10-25T03:06:15.755Z,11.27
2022-10-25T03:08:46.276Z,10.13
2022-10-25T03:11:15.093Z,9.32
2022-10-25T03:13:42.878Z,12.45
2022-10-25T03:16:10.453Z,7.38
2022-10-25T03:18:38.270Z,8.90
2022-10-25T03:21:06.489Z,10.35
2022-10-25T03:23:34.976Z,12.25
2022-10-25T03:26:04.455Z,11.35
2022-10-25T03:28:32.572Z,13.07
2022-10-25T03:31:01.098Z,10.10
2022-10-25T03:33:28.805Z,17.40
2022-10-25T03:35:56.945Z,12.05
2022-10-25T03:38:24.626Z,9.63
2022-10-25T03:40:52.204Z,10.45
2022-10-25T03:45:48.956Z,15.55
2022-10-25T03:48:16.659Z,20.50
2022-10-25T03:50:44.487Z,11.90
2022-10-25T03:53:12.420Z,14.50
2022-10-25T03:55:40.066Z,12.25
2022-10-25T03:58:07.729Z,9.27
2022-10-25T04:00:36.840Z,10.88
2022-10-25T04:03:04.741Z,12.88
2022-10-25T04:05:33.094Z,13.88
2022-10-25T04:08:00.957Z,13.32
2022-10-25T04:10:28.749Z,12.35
2022-10-25T04:12:56.466Z,12.00
2022-10-25T04:15:24.965Z,17.13
2022-10-25T04:17:54.362Z,16.80
2022-10-25T04:20:22.551Z,12.50
2022-10-25T04:22:54.539Z,9.77
2022-10-25T04:25:22.494Z,12.27
2022-10-25T04:27:50.188Z,11.32
2022-10-25T04:30:18.333Z,11.15
2022-10-25T04:32:46.541Z,13.10
2022-10-25T04:35:16.109Z,14.00
2022-10-25T04:37:43.818Z,14.55
2022-10-25T04:40:12.515Z,14.73
2022-10-25T04:42:40.138Z,16.20
2022-10-25T04:45:08.685Z,14.02
2022-10-25T04:47:36.465Z,10.00
2022-10-25T04:50:04.323Z,13.75
2022-10-25T04:52:33.739Z,10.82
2022-10-25T04:55:01.331Z,11.82
2022-10-25T04:57:28.926Z,11.25
2022-10-25T04:59:57.514Z,14.30
2022-10-25T05:02:25.654Z,14.05
2022-10-25T05:04:53.636Z,14.10
2022-10-25T05:07:22.064Z,11.88
2022-10-25T05:09:51.071Z,14.57
2022-10-25T05:12:18.716Z,15.10
2022-10-25T05:14:46.510Z,12.40
2022-10-25T05:17:16.119Z,14.40
2022-10-25T05:19:43.790Z,12.55
2022-10-25T05:22:11.524Z,10.57
2022-10-25T05:24:39.123Z,12.73
2022-10-25T05:27:08.191Z,14.15
2022-10-25T05:29:36.163Z,11.63
2022-10-25T05:32:04.081Z,14.25
2022-10-25T05:34:31.712Z,15.35
2022-10-25T05:36:59.349Z,13.63
2022-10-25T05:39:26.908Z,10.07
2022-10-25T05:41:54.543Z,14.23
2022-10-25T05:44:23.496Z,14.85
2022-10-25T05:46:51.789Z,13.23
2022-10-25T05:49:19.791Z,14.05
2022-10-25T05:51:47.630Z,10.95
2022-10-25T05:54:16.650Z,14.98
2022-10-25T05:56:44.785Z,10.88
2022-10-25T05:59:14.375Z,13.88
2022-10-25T06:01:45.748Z,14.30
2022-10-25T06:04:14.382Z,14.35
2022-10-25T06:06:43.580Z,10.95
2022-10-25T06:09:12.160Z,15.90
2022-10-25T06:11:40.654Z,11.15
2022-10-25T06:14:11.070Z,13.63
2022-10-25T06:16:39.208Z,14.20
2022-10-25T06:19:08.502Z,11.38
2022-10-25T06:21:36.416Z,12.98
2022-10-25T06:24:07.655Z,12.48
2022-10-25T06:26:35.257Z,11.88
2022-10-25T06:29:04.961Z,14.57
2022-10-25T06:31:33.834Z,15.82
2022-10-25T06:34:01.951Z,12.40
2022-10-25T06:36:32.051Z,11.57
2022-10-25T06:39:05.328Z,20.00
2022-10-25T06:41:36.883Z,12.15
2022-10-25T06:44:06.752Z,13.13
2022-10-25T06:47:15.251Z,17.35
2022-10-25T06:49:30.066Z,14.30
2022-10-25T06:51:59.165Z,13.63
2022-10-25T06:54:26.880Z,13.93
2022-10-25T06:56:54.962Z,11.00
2022-10-25T06:59:23.558Z,14.85
2022-10-25T07:01:51.383Z,15.82
2022-10-25T07:04:19.090Z,19.52
2022-10-25T07:06:50.039Z,13.80
2022-10-25T07:09:21.843Z,15.80
2022-10-25T07:11:49.521Z,15.35
2022-10-25T07:14:17.216Z,13.90
2022-10-25T07:16:44.864Z,14.82
2022-10-25T07:19:12.591Z,16.75
2022-10-25T07:21:40.306Z,19.38
2022-10-25T07:24:11.097Z,13.20
2022-10-25T07:26:40.750Z,13.55
2022-10-25T07:29:08.693Z,13.77
2022-10-25T07:31:38.788Z,13.90
2022-10-25T07:34:07.104Z,16.77
2022-10-25T07:36:35.312Z,16.23
2022-10-25T07:39:02.947Z,15.30
2022-10-25T07:41:30.584Z,19.38
2022-10-25T07:43:59.523Z,17.08
2022-10-25T07:46:27.335Z,16.25
2022-10-25T07:48:54.993Z,17.73
2022-10-25T07:51:22.592Z,20.35
2022-10-25T07:53:50.725Z,15.70
2022-10-25T07:56:23.196Z,13.50
2022-10-25T07:58:51.985Z,18.05
2022-10-25T08:01:22.768Z,18.08
2022-10-25T08:03:50.701Z,16.30
2022-10-25T08:06:19.070Z,17.80
2022-10-25T08:08:47.277Z,17.13
2022-10-25T08:11:15.246Z,18.55
2022-10-25T08:13:42.985Z,17.15
2022-10-25T08:16:10.718Z,15.55
2022-10-25T08:18:39.690Z,16.52
2022-10-25T08:21:07.406Z,17.17
2022-10-25T08:23:35.039Z,15.43
2022-10-25T08:26:03.331Z,14.00
2022-10-25T08:28:31.815Z,17.45
2022-10-25T08:31:00.660Z,17.08
2022-10-25T08:33:28.812Z,14.68
2022-10-25T08:36:01.041Z,20.20
2022-10-25T08:38:28.673Z,16.25
2022-10-25T08:41:04.056Z,13.82
2022-10-25T08:43:56.896Z,17.55
2022-10-25T08:46:28.612Z,19.00
2022-10-25T08:49:07.185Z,16.45
2022-10-25T08:51:40.393Z,14.68
2022-10-25T08:54:21.823Z,15.27
2022-10-25T08:57:10.626Z,12.07
2022-10-25T08:59:43.943Z,12.20
2022-10-25T09:02:19.353Z,13.10
2022-10-25T09:04:47.076Z,15.82
2022-10-25T09:07:29.343Z,11.60
2022-10-25T09:10:05.207Z,12.38
2022-10-25T09:12:39.069Z,11.10
2022-10-25T09:15:21.040Z,12.50
2022-10-25T09:17:51.303Z,10.55
2022-10-25T09:20:21.992Z,16.02
2022-10-25T09:22:57.961Z,13.15
2022-10-25T09:25:34.219Z,11.57
2022-10-25T09:28:07.107Z,14.40
2022-10-25T09:30:40.465Z,14.50
2022-10-25T09:33:12.822Z,12.68
2022-10-25T09:35:45.015Z,9.95
2022-10-25T09:38:20.364Z,12.15
2022-10-25T09:40:51.876Z,11.40
2022-10-25T09:43:24.043Z,8.85
2022-10-25T09:45:55.267Z,8.45
2022-10-25T09:48:26.601Z,10.77
2022-10-25T09:51:02.146Z,9.60
2022-10-25T09:53:34.275Z,10.75
2022-10-25T09:56:05.445Z,13.48
2022-10-25T09:58:35.386Z,9.27
2022-10-25T10:01:07.060Z,10.35
2022-10-25T10:03:37.288Z,11.18
2022-10-25T10:06:12.820Z,9.77
2022-10-25T10:08:46.720Z,10.05
2022-10-25T10:11:17.265Z,7.55
2022-10-25T10:13:49.717Z,10.13
2022-10-25T10:16:22.753Z,12.35
2022-10-25T10:18:50.495Z,10.05
2022-10-25T10:21:20.917Z,11.98
2022-10-25T10:23:53.170Z,9.68
2022-10-25T10:26:25.411Z,12.63
2022-10-25T10:29:07.827Z,9.73
2022-10-25T10:31:38.275Z,10.13
2022-10-25T10:34:08.434Z,10.20
2022-10-25T10:36:36.280Z,11.23
2022-10-25T10:39:23.276Z,10.77
2022-10-25T10:42:03.037Z,6.45
2022-10-25T10:44:34.452Z,8.30
2022-10-25T10:47:03.375Z,11.82
2022-10-25T10:49:37.033Z,11.13
2022-10-25T10:52:05.711Z,7.57
2022-10-25T10:54:40.819Z,10.20
2022-10-25T10:57:25.891Z,6.32
2022-10-25T10:59:56.213Z,7.75
2022-10-25T11:02:35.331Z,7.43
2022-10-25T11:05:03.183Z,6.82
2022-10-25T11:07:34.090Z,8.10
2022-10-25T11:10:31.761Z,9.35
2022-10-25T11:13:13.608Z,9.55
2022-10-25T11:16:01.404Z,7.93
2022-10-25T11:18:50.843Z,7.25
2022-10-25T11:21:31.856Z,7.22
2022-10-25T11:24:09.266Z,5.72
2022-10-25T11:26:50.266Z,7.35
2022-10-25T11:29:35.757Z,6.78
2022-10-25T11:32:33.727Z,9.95
2022-10-25T11:35:14.795Z,6.38
2022-10-25T11:37:48.319Z,6.75
2022-10-25T11:40:19.205Z,6.68
2022-10-25T11:43:06.780Z,4.72
2022-10-25T11:45:42.666Z,7.82
2022-10-25T11:48:22.987Z,6.57
2022-10-25T11:50:58.393Z,8.40
2022-10-25T11:53:48.731Z,6.38
2022-10-25T11:56:23.078Z,5.28
2022-10-25T11:59:00.434Z,4.47
2022-10-25T12:01:41.437Z,6.75
2022-10-25T12:04:28.589Z,4.85
2022-10-25T12:07:05.239Z,4.90
2022-10-25T12:09:41.531Z,7.63
2022-10-25T12:12:13.714Z,6.53
2022-10-25T12:14:47.058Z,9.32
2022-10-25T12:17:22.502Z,6.30
2022-10-25T12:19:52.443Z,4.00
2022-10-25T12:22:24.414Z,6.78
2022-10-25T12:24:58.212Z,9.70
2022-10-25T12:27:27.324Z,8.73
2022-10-25T12:29:59.355Z,7.88
2022-10-25T12:32:34.829Z,8.95
2022-10-25T12:35:05.993Z,8.40
2022-10-25T12:37:38.388Z,7.35
2022-10-25T12:40:07.265Z,7.50
2022-10-25T12:42:43.819Z,7.55
2022-10-25T12:45:32.576Z,7.28
2022-10-25T12:48:14.416Z,6.20
2022-10-25T12:51:07.301Z,7.32
2022-10-25T12:54:05.917Z,5.32
2022-10-25T12:56:57.106Z,5.78
2022-10-25T12:59:43.162Z,6.18
2022-10-25T13:02:31.570Z,7.75
2022-10-25T13:05:28.183Z,6.22
2022-10-25T13:07:57.863Z,5.60
2022-10-25T13:13:01.485Z,5.10
2022-10-25T13:15:40.033Z,4.57
2022-10-25T13:18:27.325Z,4.43
2022-10-25T13:20:55.867Z,6.95
2022-10-25T13:23:50.109Z,5.78
2022-10-25T13:26:19.757Z,2.10
2022-10-25T13:28:49.382Z,9.07
2022-10-25T13:31:58.165Z,5.25
2022-10-25T13:34:37.200Z,4.18
2022-10-25T13:37:07.871Z,6.68
2022-10-25T13:39:44.267Z,11.10
2022-10-25T13:42:30.342Z,4.88
2022-10-25T13:45:00.436Z,5.47
2022-10-25T13:47:36.622Z,7.47
2022-10-25T13:53:02.574Z,5.57
2022-10-25T13:55:36.902Z,7.43
2022-10-25T13:58:40.796Z,10.10
2022-10-25T14:01:38.271Z,9.75
2022-10-25T14:04:21.946Z,7.95
2022-10-25T14:06:51.051Z,7.43
2022-10-25T14:09:27.053Z,7.88
2022-10-25T14:12:11.211Z,4.50
2022-10-25T14:14:58.171Z,9.02
2022-10-25T14:17:33.465Z,6.95
2022-10-25T14:20:03.721Z,4.72
2022-10-25T14:22:37.068Z,10.43
2022-10-25T14:25:08.622Z,7.38
2022-10-25T14:27:38.111Z,9.05
2022-10-25T14:30:25.604Z,12.00
2022-10-25T14:32:56.071Z,12.10
2022-10-25T14:35:25.218Z,9.10
2022-10-25T14:37:54.265Z,19.05
2022-10-25T14:40:24.978Z,7.50
2022-10-25T14:42:55.425Z,11.52
2022-10-25T14:45:25.129Z,10.75
2022-10-25T14:47:53.573Z,12.00
2022-10-25T14:50:24.817Z,10.05
2022-10-25T14:52:56.880Z,8.98
2022-10-25T14:55:31.661Z,9.63
2022-10-25T14:58:01.480Z,9.52
2022-10-25T15:00:29.229Z,7.07
2022-10-25T15:03:01.306Z,9.07
2022-10-25T15:05:29.499Z,8.75
2022-10-25T15:08:00.062Z,11.00
2022-10-25T15:10:35.853Z,11.27
2022-10-25T15:13:07.153Z,4.78
2022-10-25T15:15:40.885Z,11.80
2022-10-25T15:18:41.763Z,7.82
2022-10-25T15:21:16.972Z,9.65
2022-10-25T15:24:10.220Z,10.23
2022-10-25T15:26:39.037Z,7.57
2022-10-25T15:29:06.883Z,8.55
2022-10-25T15:31:34.489Z,11.30
2022-10-25T15:34:03.774Z,11.48
2022-10-25T15:36:33.250Z,15.63
2022-10-25T15:39:10.534Z,9.55
2022-10-25T15:41:43.196Z,9.43
2022-10-25T15:44:10.906Z,9.25
2022-10-25T15:46:40.041Z,6.82
2022-10-25T15:49:08.565Z,10.48
2022-10-25T15:51:39.978Z,8.48
2022-10-25T15:54:16.931Z,7.13
2022-10-25T15:56:46.605Z,8.02
2022-10-25T16:01:45.582Z,11.73
2022-10-25T16:04:15.721Z,8.18
2022-10-25T16:06:43.904Z,10.88
2022-10-25T16:09:11.654Z,10.52
2022-10-25T16:11:43.743Z,7.70
2022-10-25T16:14:22.408Z,14.18
2022-10-25T16:16:51.107Z,10.18
2022-10-25T16:19:21.484Z,8.45
2022-10-25T16:21:49.783Z,11.50
2022-10-25T16:24:20.937Z,7.60
2022-10-25T16:26:51.273Z,11.13
2022-10-25T16:29:22.569Z,16.60
2022-10-25T16:31:54.194Z,8.65
2022-10-25T16:34:21.910Z,13.43
2022-10-25T16:36:52.344Z,10.10
2022-10-25T16:39:19.950Z,9.15
2022-10-25T16:41:48.926Z,7.35
2022-10-25T16:44:18.934Z,6.35
2022-10-25T16:46:48.652Z,8.88
2022-10-25T16:49:16.305Z,9.55
2022-10-25T16:51:45.242Z,7.30
2022-10-25T16:54:15.227Z,7.75
2022-10-25T16:56:43.184Z,9.52
2022-10-25T16:59:13.676Z,15.80
2022-10-25T17:01:44.764Z,14.45
2022-10-25T17:04:17.939Z,12.10
2022-10-25T17:06:45.710Z,9.18
2022-10-25T17:09:13.426Z,7.35
2022-10-25T17:11:41.442Z,8.95
2022-10-25T17:14:10.961Z,10.63
2022-10-25T17:16:40.958Z,9.77
2022-10-25T17:19:10.300Z,8.52
2022-10-25T17:21:39.863Z,9.15
2022-10-25T17:24:09.348Z,10.82
2022-10-25T17:26:37.414Z,7.05
2022-10-25T17:29:05.326Z,6.70
2022-10-25T17:31:33.172Z,12.00
2022-10-25T17:34:03.642Z,7.88
2022-10-25T17:36:32.203Z,11.18
2022-10-25T17:39:02.006Z,6.15
2022-10-25T17:41:29.593Z,7.53
2022-10-25T17:43:57.403Z,9.60
2022-10-25T17:46:27.574Z,11.73
2022-10-25T17:48:56.442Z,11.00
2022-10-25T17:51:24.428Z,13.43
2022-10-25T17:53:54.032Z,10.95
2022-10-25T17:56:24.643Z,8.57
2022-10-25T17:58:53.158Z,10.38
2022-10-25T18:01:25.461Z,13.43
2022-10-25T18:03:54.198Z,15.70
2022-10-25T18:06:23.624Z,12.80
2022-10-25T18:08:51.968Z,12.07
2022-10-25T18:11:23.067Z,11.82
2022-10-25T18:13:54.240Z,12.70
2022-10-25T18:16:25.786Z,8.32
2022-10-25T18:18:53.758Z,9.20
2022-10-25T18:21:21.484Z,8.10
2022-10-25T18:23:49.220Z,11.10
2022-10-25T18:26:17.723Z,9.63
2022-10-25T18:28:45.438Z,8.50
2022-10-25T18:31:14.992Z,10.68
2022-10-25T18:33:44.294Z,6.47
2022-10-25T18:36:15.328Z,8.02
2022-10-25T18:38:43.268Z,10.27
2022-10-25T18:41:15.087Z,12.25
2022-10-25T18:43:42.941Z,8.57
2022-10-25T18:46:10.980Z,11.38
2022-10-25T18:48:40.275Z,9.88
2022-10-25T18:51:11.021Z,9.20
2022-10-25T18:53:39.477Z,10.07
2022-10-25T18:56:09.655Z,11.63
2022-10-25T18:58:37.677Z,12.40
2022-10-25T19:01:09.200Z,10.15
2022-10-25T19:03:37.344Z,12.82
2022-10-25T19:06:06.752Z,10.63
2022-10-25T19:08:35.237Z,10.07
2022-10-25T19:11:06.399Z,9.85
2022-10-25T19:13:34.103Z,11.35
2022-10-25T19:16:02.074Z,12.23
2022-10-25T19:18:31.227Z,13.90
2022-10-25T19:21:02.919Z,13.38
2022-10-25T19:23:32.654Z,11.50
2022-10-25T19:26:03.413Z,10.55
2022-10-25T19:28:31.162Z,15.40
2022-10-25T19:31:06.244Z,11.18
2022-10-25T19:33:33.993Z,15.30
2022-10-25T19:36:05.525Z,11.32
2022-10-25T19:38:36.004Z,13.20
2022-10-25T19:41:05.802Z,15.55
2022-10-25T19:43:33.972Z,12.93
2022-10-25T19:46:04.708Z,13.98
2022-10-25T19:48:33.208Z,11.05
2022-10-25T19:51:05.528Z,14.15
2022-10-25T19:53:35.099Z,12.35
2022-10-25T19:56:04.319Z,9.27
2022-10-25T19:58:32.042Z,11.70
2022-10-25T20:01:09.579Z,13.40
2022-10-25T20:03:40.534Z,10.05
2022-10-25T20:06:10.944Z,11.43
2022-10-25T20:11:40.859Z,10.13
2022-10-25T20:14:10.029Z,9.80
2022-10-25T20:16:38.075Z,12.60
2022-10-25T20:19:05.755Z,9.23
2022-10-25T20:21:35.904Z,12.15
2022-10-25T20:24:07.818Z,12.25
2022-10-25T20:26:36.924Z,11.60
2022-10-25T20:29:06.789Z,12.05
2022-10-25T20:31:35.757Z,11.70
2022-10-25T20:34:03.433Z,13.82
2022-10-25T20:36:31.466Z,9.15
2022-10-25T20:38:59.082Z,10.55
2022-10-25T20:41:30.250Z,9.38
2022-10-25T20:43:59.750Z,13.90
2022-10-25T20:46:28.923Z,9.82
2022-10-25T20:48:57.839Z,8.57
2022-10-25T20:51:25.720Z,10.60
2022-10-25T20:53:53.755Z,13.05
2022-10-25T20:56:22.593Z,7.93
2022-10-25T20:58:52.097Z,11.18
2022-10-25T21:01:19.751Z,11.40
2022-10-25T21:03:47.569Z,11.07
2022-10-25T21:06:15.175Z,12.02
2022-10-25T21:08:42.930Z,11.82
2022-10-25T21:11:12.846Z,14.45
2022-10-25T21:13:40.703Z,9.20
2022-10-25T21:16:11.404Z,12.18
2022-10-25T21:18:39.168Z,12.93
2022-10-25T21:21:09.335Z,8.38
2022-10-25T21:23:37.488Z,9.75
2022-10-25T21:26:06.920Z,7.68
2022-10-25T21:28:36.007Z,11.07
2022-10-25T21:31:04.202Z,7.75
2022-10-25T21:33:33.653Z,8.68
2022-10-25T21:36:06.104Z,10.55
2022-10-25T21:38:33.802Z,9.93
2022-10-25T21:41:08.989Z,7.70
2022-10-25T21:43:37.245Z,10.13
2022-10-25T21:46:06.357Z,10.07
2022-10-25T21:48:35.817Z,8.75
2022-10-25T21:51:03.458Z,11.38
2022-10-25T21:53:31.149Z,10.57
2022-10-25T21:56:07.145Z,8.40
2022-10-25T21:58:35.165Z,9.98
2022-10-25T22:01:03.085Z,9.52
2022-10-25T22:03:31.193Z,10.43
2022-10-25T22:06:00.127Z,13.55
2022-10-25T22:08:27.842Z,6.68
2022-10-25T22:10:57.149Z,9.57
2022-10-25T22:13:25.005Z,9.23
2022-10-25T22:15:59.764Z,7.65
2022-10-25T22:18:27.600Z,10.65
2022-10-25T22:20:57.039Z,6.78
2022-10-25T22:23:28.145Z,14.07
2022-10-25T22:25:56.348Z,8.70
2022-10-25T22:28:24.087Z,9.90
2022-10-25T22:30:58.122Z,6.40
2022-10-25T22:33:25.809Z,8.07
2022-10-25T22:35:53.564Z,11.07
2022-10-25T22:38:21.527Z,9.00
2022-10-25T22:40:58.903Z,8.95
2022-10-25T22:43:26.990Z,6.50
2022-10-25T22:45:54.923Z,8.25
2022-10-25T22:48:23.347Z,9.05
2022-10-25T22:50:52.011Z,8.45
2022-10-25T22:53:20.684Z,8.00
2022-10-25T22:55:55.875Z,9.48
2022-10-25T22:58:28.819Z,7.78
2022-10-25T23:01:00.248Z,13.82
2022-10-25T23:03:27.915Z,11.63
2022-10-25T23:05:58.839Z,9.68
2022-10-25T23:08:27.110Z,6.72
2022-10-25T23:10:59.815Z,11.75
2022-10-25T23:13:29.290Z,10.43
2022-10-25T23:15:56.985Z,12.15
2022-10-25T23:18:25.645Z,16.10
2022-10-25T23:20:54.850Z,8.02
2022-10-25T23:23:23.386Z,11.27
2022-10-25T23:25:51.843Z,8.52
2022-10-25T23:28:19.500Z,9.07
2022-10-25T23:30:48.518Z,8.57
2022-10-25T23:33:17.289Z,9.48
2022-10-25T23:35:47.476Z,8.23
2022-10-25T23:38:16.205Z,9.35
2022-10-25T23:40:47.586Z,13.73
2022-10-25T23:43:15.311Z,10.15
2022-10-25T23:45:43.151Z,9.57
2022-10-25T23:48:12.242Z,8.20
2022-10-25T23:50:43.008Z,13.45
2022-10-25T23:53:10.668Z,9.40
2022-10-25T23:55:39.635Z,8.63
2022-10-25T23:58:07.376Z,6.63
